Time;durP1;ratioP1;P1;durP2;ratioP2;P2;SDS_P1;SDS_P2;PMS_P1;PMS_P2;Temp;Humidity;BMP_temperature;BMP_pressure;BME280_temperature;BME280_humidity;BME280_pressure;Samples;Min_cycle;Max_cycle;Signal;HPM_P1;HPM_P2
2021/05/19 00:02:23;;;;;;;0.85;0.40;;;;;;;;;;4974583;28;20053;-83
2021/05/19 00:04:53;;;;;;;1.42;0.40;;;;;;;;;;4975890;28;20048;-83
2021/05/19 00:07:19;;;;;;;2.65;0.50;;;;;;;;;;4974605;28;20038;-83
2021/05/19 00:09:45;;;;;;;1.50;0.60;;;;;;;;;;4973924;28;20031;-83
2021/05/19 00:12:12;;;;;;;2.42;0.40;;;;;;;;;;4976170;28;20069;-83
2021/05/19 00:14:38;;;;;;;3.50;0.57;;;;;;;;;;4974391;28;20027;-83
2021/05/19 00:17:05;;;;;;;1.67;0.50;;;;;;;;;;4975399;28;20086;-83
2021/05/19 00:19:31;;;;;;;1.92;0.40;;;;;;;;;;4975994;28;20021;-83
2021/05/19 00:21:58;;;;;;;1.55;0.60;;;;;;;;;;4974545;28;20030;-83
2021/05/19 00:24:24;;;;;;;0.95;0.43;;;;;;;;;;4973655;28;20392;-80
2021/05/19 00:26:50;;;;;;;2.60;0.60;;;;;;;;;;4974658;28;20031;-81
2021/05/19 00:29:16;;;;;;;2.38;0.90;;;;;;;;;;4974886;28;20059;-81
2021/05/19 00:31:43;;;;;;;2.72;0.95;;;;;;;;;;4977418;28;20038;-82
2021/05/19 00:34:10;;;;;;;4.47;1.00;;;;;;;;;;4980302;28;20030;-81
2021/05/19 00:36:36;;;;;;;3.53;0.90;;;;;;;;;;4978443;28;20035;-82
2021/05/19 00:39:02;;;;;;;4.45;1.30;;;;;;;;;;4979849;28;20106;-83
2021/05/19 00:41:29;;;;;;;5.93;1.55;;;;;;;;;;4979970;28;20082;-80
2021/05/19 00:44:16;;;;;;;2.50;0.90;;;;;;;;;;4979028;28;20035;-81
2021/05/19 00:46:43;;;;;;;1.67;0.60;;;;;;;;;;4978675;28;20077;-82
2021/05/19 00:49:09;;;;;;;2.17;0.70;;;;;;;;;;4979068;28;20023;-82
2021/05/19 00:51:35;;;;;;;3.20;1.15;;;;;;;;;;4980471;28;20045;-83
2021/05/19 00:54:02;;;;;;;3.60;1.25;;;;;;;;;;4980458;28;20010;-81
2021/05/19 00:56:31;;;;;;;2.42;1.00;;;;;;;;;;4978771;28;20034;-83
2021/05/19 00:58:59;;;;;;;2.30;0.82;;;;;;;;;;4978196;28;20539;-80
2021/05/19 01:01:26;;;;;;;3.20;1.23;;;;;;;;;;4977233;28;20034;-84
2021/05/19 01:03:53;;;;;;;6.22;1.55;;;;;;;;;;4978856;28;20149;-83
2021/05/19 01:06:48;;;;;;;10.32;2.53;;;;;;;;;;4978467;28;20067;-83
2021/05/19 01:11:51;;;;;;;13.07;4.93;;;;;;;;;;4978487;28;20389;-83
2021/05/19 01:14:17;;;;;;;8.27;2.58;;;;;;;;;;4977139;28;20027;-83
2021/05/19 01:16:43;;;;;;;1.48;0.63;;;;;;;;;;4977082;28;20562;-84
2021/05/19 01:19:12;;;;;;;1.65;0.60;;;;;;;;;;4977047;28;20027;-83
2021/05/19 01:21:42;;;;;;;1.80;0.73;;;;;;;;;;4976963;28;20030;-83
2021/05/19 01:24:08;;;;;;;1.58;0.80;;;;;;;;;;4976560;28;20023;-81
2021/05/19 01:26:34;;;;;;;1.42;0.57;;;;;;;;;;4976847;28;20027;-85
2021/05/19 01:29:01;;;;;;;1.63;0.50;;;;;;;;;;4977130;28;20035;-83
2021/05/19 01:31:28;;;;;;;2.08;0.43;;;;;;;;;;4978768;28;20106;-83
2021/05/19 01:33:54;;;;;;;1.33;0.50;;;;;;;;;;4977836;28;20022;-82
2021/05/19 01:36:21;;;;;;;1.65;0.35;;;;;;;;;;4977329;28;20101;-83
2021/05/19 01:38:47;;;;;;;1.73;0.50;;;;;;;;;;4976539;28;20054;-83
2021/05/19 01:41:13;;;;;;;1.45;0.50;;;;;;;;;;4977066;28;20476;-84
2021/05/19 01:43:40;;;;;;;1.38;0.40;;;;;;;;;;4975538;28;20035;-84
2021/05/19 01:46:07;;;;;;;1.33;0.50;;;;;;;;;;4975914;28;20030;-83
2021/05/19 01:48:34;;;;;;;1.35;0.52;;;;;;;;;;4977491;28;20030;-83
2021/05/19 01:51:02;;;;;;;1.27;0.40;;;;;;;;;;4977709;28;20154;-84
2021/05/19 01:53:28;;;;;;;3.05;0.52;;;;;;;;;;4978097;28;20158;-83
2021/05/19 01:55:55;;;;;;;1.27;0.60;;;;;;;;;;4976163;28;20436;-84
2021/05/19 01:58:22;;;;;;;2.03;0.70;;;;;;;;;;4977828;28;20396;-84
2021/05/19 02:00:49;;;;;;;2.42;1.10;;;;;;;;;;4977117;28;20034;-83
2021/05/19 02:03:15;;;;;;;3.10;0.93;;;;;;;;;;4976164;28;20054;-85
2021/05/19 02:05:41;;;;;;;2.58;1.15;;;;;;;;;;4976169;28;20018;-83
2021/05/19 02:08:08;;;;;;;3.38;1.05;;;;;;;;;;4977632;28;20029;-82
2021/05/19 02:10:36;;;;;;;1.83;0.85;;;;;;;;;;4975517;28;20498;-82
2021/05/19 02:13:03;;;;;;;2.00;1.10;;;;;;;;;;4975663;28;20031;-82
2021/05/19 02:15:30;;;;;;;2.47;1.15;;;;;;;;;;4977630;28;20035;-82
2021/05/19 02:17:58;;;;;;;3.22;1.27;;;;;;;;;;4977182;28;20050;-82
2021/05/19 02:20:26;;;;;;;3.25;1.00;;;;;;;;;;4977743;28;20034;-82
2021/05/19 02:22:52;;;;;;;1.75;0.85;;;;;;;;;;4977185;28;20031;-83
2021/05/19 02:25:19;;;;;;;3.45;1.10;;;;;;;;;;4975908;28;20070;-82
2021/05/19 02:27:46;;;;;;;3.63;1.25;;;;;;;;;;4975024;28;20035;-82
2021/05/19 02:30:12;;;;;;;2.90;1.23;;;;;;;;;;4975721;28;20121;-82
2021/05/19 02:32:39;;;;;;;4.60;0.98;;;;;;;;;;4975859;28;20122;-82
2021/05/19 02:35:07;;;;;;;1.88;1.10;;;;;;;;;;4976988;28;20535;-82
2021/05/19 02:37:33;;;;;;;5.38;1.58;;;;;;;;;;4976774;28;20022;-83
2021/05/19 02:40:00;;;;;;;2.65;1.10;;;;;;;;;;4975635;28;20122;-81
2021/05/19 02:42:26;;;;;;;3.53;1.33;;;;;;;;;;4976032;28;20149;-82
2021/05/19 02:44:53;;;;;;;5.50;1.33;;;;;;;;;;4975742;28;20030;-82
2021/05/19 02:47:19;;;;;;;1.88;1.00;;;;;;;;;;4976352;28;20121;-82
2021/05/19 02:49:45;;;;;;;1.75;0.80;;;;;;;;;;4975360;28;20117;-82
2021/05/19 02:52:12;;;;;;;2.00;0.90;;;;;;;;;;4976199;28;20026;-83
2021/05/19 02:54:38;;;;;;;2.47;1.00;;;;;;;;;;4974832;28;20054;-83
2021/05/19 02:57:05;;;;;;;2.35;0.80;;;;;;;;;;4974369;28;20041;-83
2021/05/19 02:59:31;;;;;;;1.27;0.63;;;;;;;;;;4976938;28;20022;-82
2021/05/19 03:01:58;;;;;;;1.42;0.50;;;;;;;;;;4976492;28;20038;-82
2021/05/19 03:04:24;;;;;;;1.48;0.68;;;;;;;;;;4976253;28;20058;-83
2021/05/19 03:06:51;;;;;;;1.50;0.50;;;;;;;;;;4976959;28;20034;-83
2021/05/19 03:09:17;;;;;;;4.32;0.60;;;;;;;;;;4976455;28;20023;-82
2021/05/19 03:11:44;;;;;;;1.52;0.60;;;;;;;;;;4975915;28;20064;-83
2021/05/19 03:14:10;;;;;;;1.20;0.60;;;;;;;;;;4975092;28;20038;-81
2021/05/19 03:16:37;;;;;;;3.63;0.68;;;;;;;;;;4974955;28;20038;-81
2021/05/19 03:19:05;;;;;;;1.48;0.57;;;;;;;;;;4976380;28;20033;-82
2021/05/19 03:21:31;;;;;;;1.77;0.68;;;;;;;;;;4976348;28;20031;-82
2021/05/19 03:23:57;;;;;;;1.00;0.50;;;;;;;;;;4976394;28;20460;-81
2021/05/19 03:26:23;;;;;;;1.33;0.50;;;;;;;;;;4976459;28;20030;-82
2021/05/19 03:28:50;;;;;;;3.22;0.65;;;;;;;;;;4974430;28;20026;-82
2021/05/19 03:31:17;;;;;;;1.20;0.50;;;;;;;;;;4974954;28;20055;-82
2021/05/19 03:33:43;;;;;;;1.02;0.50;;;;;;;;;;4976203;28;20046;-82
2021/05/19 03:36:09;;;;;;;1.10;0.40;;;;;;;;;;4974703;28;20030;-82
2021/05/19 03:38:36;;;;;;;1.02;0.55;;;;;;;;;;4976143;28;20094;-83
2021/05/19 03:41:03;;;;;;;2.15;0.60;;;;;;;;;;4976560;28;20023;-83
2021/05/19 03:43:30;;;;;;;1.35;0.52;;;;;;;;;;4974037;28;20034;-82
2021/05/19 03:45:56;;;;;;;1.50;0.50;;;;;;;;;;4974713;28;20038;-83
2021/05/19 03:48:22;;;;;;;0.93;0.47;;;;;;;;;;4975980;28;20031;-83
2021/05/19 03:50:49;;;;;;;1.75;0.55;;;;;;;;;;4974716;28;20137;-83
2021/05/19 03:53:15;;;;;;;5.40;0.85;;;;;;;;;;4976105;28;20038;-82
2021/05/19 03:55:43;;;;;;;1.88;0.50;;;;;;;;;;4975924;28;20088;-83
2021/05/19 03:58:10;;;;;;;1.30;0.60;;;;;;;;;;4973930;28;20039;-82
2021/05/19 04:00:38;;;;;;;1.15;0.55;;;;;;;;;;4974650;28;20069;-82
2021/05/19 04:03:05;;;;;;;1.10;0.43;;;;;;;;;;4974349;28;20078;-82
2021/05/19 04:05:34;;;;;;;1.13;0.55;;;;;;;;;;4977087;28;20381;-83
2021/05/19 04:08:00;;;;;;;1.58;0.50;;;;;;;;;;4978822;28;20082;-82
2021/05/19 04:10:27;;;;;;;2.40;1.00;;;;;;;;;;4978867;28;20022;-83
2021/05/19 04:12:53;;;;;;;2.67;0.90;;;;;;;;;;4978097;28;20061;-83
2021/05/19 04:15:21;;;;;;;1.80;0.90;;;;;;;;;;4978971;28;20035;-83
2021/05/19 04:17:47;;;;;;;1.67;0.50;;;;;;;;;;4978097;28;20047;-82
2021/05/19 04:20:14;;;;;;;3.97;0.63;;;;;;;;;;4978246;28;20027;-82
2021/05/19 04:22:41;;;;;;;2.00;0.80;;;;;;;;;;4978564;28;20118;-83
2021/05/19 04:25:07;;;;;;;2.50;0.57;;;;;;;;;;4979244;28;20486;-83
2021/05/19 04:27:34;;;;;;;3.63;0.88;;;;;;;;;;4979850;28;20085;-82
2021/05/19 04:30:00;;;;;;;1.38;0.50;;;;;;;;;;4977523;28;20472;-82
2021/05/19 04:32:26;;;;;;;1.38;0.70;;;;;;;;;;4979179;28;20440;-80
2021/05/19 04:34:52;;;;;;;2.53;0.57;;;;;;;;;;4977793;28;20023;-80
2021/05/19 04:37:19;;;;;;;4.30;0.60;;;;;;;;;;4979343;28;20093;-79
2021/05/19 04:39:45;;;;;;;1.60;0.65;;;;;;;;;;4979035;28;20021;-81
2021/05/19 04:42:11;;;;;;;2.55;0.70;;;;;;;;;;4978868;28;20027;-82
2021/05/19 04:44:37;;;;;;;1.42;0.60;;;;;;;;;;4978124;28;20023;-79
2021/05/19 04:47:03;;;;;;;2.03;0.60;;;;;;;;;;4979435;28;20027;-80
2021/05/19 04:49:30;;;;;;;1.08;0.50;;;;;;;;;;4978834;28;20035;-82
2021/05/19 04:51:56;;;;;;;3.22;0.80;;;;;;;;;;4979263;28;20027;-80
2021/05/19 04:54:22;;;;;;;1.38;0.50;;;;;;;;;;4977580;28;20068;-83
2021/05/19 04:56:48;;;;;;;1.15;0.50;;;;;;;;;;4978575;28;20026;-81
2021/05/19 04:59:14;;;;;;;4.32;0.65;;;;;;;;;;4976699;28;20031;-80
2021/05/19 05:01:40;;;;;;;2.85;0.50;;;;;;;;;;4977366;28;20110;-80
2021/05/19 05:04:07;;;;;;;2.58;0.50;;;;;;;;;;4977231;28;20457;-80
2021/05/19 05:06:33;;;;;;;1.48;0.50;;;;;;;;;;4978893;28;20023;-81
2021/05/19 05:08:59;;;;;;;2.22;0.60;;;;;;;;;;4977205;28;20045;-82
2021/05/19 05:11:25;;;;;;;1.52;0.60;;;;;;;;;;4978802;28;20023;-84
2021/05/19 05:13:51;;;;;;;4.28;0.55;;;;;;;;;;4976343;28;20034;-82
2021/05/19 05:16:17;;;;;;;1.43;0.67;;;;;;;;;;4976801;28;20027;-82
2021/05/19 05:18:43;;;;;;;2.30;0.70;;;;;;;;;;4977229;28;20078;-82
2021/05/19 05:21:12;;;;;;;2.30;0.60;;;;;;;;;;4977063;28;20105;-83
2021/05/19 05:23:38;;;;;;;3.25;0.90;;;;;;;;;;4977040;28;20037;-83
2021/05/19 05:26:04;;;;;;;3.17;0.80;;;;;;;;;;4977002;28;20031;-82
2021/05/19 05:28:32;;;;;;;1.48;0.40;;;;;;;;;;4976190;28;20027;-83
2021/05/19 05:30:58;;;;;;;1.40;0.60;;;;;;;;;;4978123;28;20490;-83
2021/05/19 05:33:24;;;;;;;1.95;0.80;;;;;;;;;;4978007;28;20034;-83
2021/05/19 05:35:50;;;;;;;2.65;0.73;;;;;;;;;;4977059;28;20054;-82
2021/05/19 05:38:18;;;;;;;2.45;0.68;;;;;;;;;;4976561;28;20042;-82
2021/05/19 05:40:44;;;;;;;9.43;0.80;;;;;;;;;;4976493;28;20160;-82
2021/05/19 05:43:10;;;;;;;1.40;0.60;;;;;;;;;;4976114;28;20062;-80
2021/05/19 05:45:36;;;;;;;1.42;0.70;;;;;;;;;;4976022;28;20137;-81
2021/05/19 05:48:03;;;;;;;1.50;0.60;;;;;;;;;;4978092;28;20069;-82
2021/05/19 05:50:29;;;;;;;1.33;0.60;;;;;;;;;;4978770;28;20460;-82
2021/05/19 05:52:55;;;;;;;1.42;0.60;;;;;;;;;;4976610;28;20031;-83
2021/05/19 05:55:22;;;;;;;2.47;0.73;;;;;;;;;;4977533;28;20476;-82
2021/05/19 05:57:49;;;;;;;1.35;0.60;;;;;;;;;;4976872;28;20038;-82
2021/05/19 06:00:15;;;;;;;2.58;0.70;;;;;;;;;;4977745;28;20085;-82
2021/05/19 06:02:41;;;;;;;2.92;0.40;;;;;;;;;;4978037;28;20097;-80
2021/05/19 06:05:09;;;;;;;1.45;0.50;;;;;;;;;;4976274;28;20054;-82
2021/05/19 06:07:35;;;;;;;2.15;0.45;;;;;;;;;;4985922;28;20499;-85
2021/05/19 06:10:02;;;;;;;1.65;0.60;;;;;;;;;;4989985;28;20383;-87
2021/05/19 06:12:28;;;;;;;2.78;0.98;;;;;;;;;;4995158;28;20030;-84
2021/05/19 06:14:54;;;;;;;4.43;1.10;;;;;;;;;;4994667;28;20037;-81
2021/05/19 06:17:20;;;;;;;3.45;1.20;;;;;;;;;;4996714;28;20389;-87
2021/05/19 06:19:46;;;;;;;2.03;0.88;;;;;;;;;;4995474;28;20503;-82
2021/05/19 06:22:12;;;;;;;1.80;0.75;;;;;;;;;;4996712;28;20022;-84
2021/05/19 06:24:38;;;;;;;2.40;0.80;;;;;;;;;;4996784;28;20022;-83
2021/05/19 06:27:06;;;;;;;1.50;0.65;;;;;;;;;;4996149;28;20032;-83
2021/05/19 06:29:32;;;;;;;4.38;1.50;;;;;;;;;;4993816;28;20113;-84
2021/05/19 06:31:59;;;;;;;2.25;0.80;;;;;;;;;;4994676;28;20065;-81
2021/05/19 06:34:25;;;;;;;1.98;0.70;;;;;;;;;;4996011;28;20471;-81
2021/05/19 06:36:51;;;;;;;2.15;0.45;;;;;;;;;;4995674;28;20035;-87
2021/05/19 06:39:22;;;;;;;1.38;0.70;;;;;;;;;;4994121;28;20117;-88
2021/05/19 06:41:49;;;;;;;2.28;0.73;;;;;;;;;;4994750;28;20022;-89
2021/05/19 06:44:17;;;;;;;2.20;0.63;;;;;;;;;;4995671;28;20031;-85
2021/05/19 06:46:44;;;;;;;2.53;0.95;;;;;;;;;;4995230;28;20026;-80
2021/05/19 06:49:10;;;;;;;1.10;0.52;;;;;;;;;;4996125;28;20538;-87
2021/05/19 06:51:36;;;;;;;2.92;0.70;;;;;;;;;;4995082;28;20483;-84
2021/05/19 06:54:02;;;;;;;1.40;0.70;;;;;;;;;;4995064;28;20073;-86
2021/05/19 06:56:28;;;;;;;1.73;0.68;;;;;;;;;;4995083;28;20384;-87
2021/05/19 06:58:55;;;;;;;2.92;0.70;;;;;;;;;;4994820;28;20034;-87
2021/05/19 07:01:21;;;;;;;1.23;0.47;;;;;;;;;;4995807;28;20483;-87
2021/05/19 07:03:49;;;;;;;3.17;0.63;;;;;;;;;;4994657;28;20512;-87
2021/05/19 07:06:19;;;;;;;1.50;0.50;;;;;;;;;;4994299;28;20034;-85
2021/05/19 07:08:45;;;;;;;1.83;0.52;;;;;;;;;;4994700;28;20026;-87
2021/05/19 07:11:11;;;;;;;1.40;0.50;;;;;;;;;;4994504;28;20026;-87
2021/05/19 07:13:37;;;;;;;1.15;0.40;;;;;;;;;;4996035;28;20026;-85
2021/05/19 07:16:04;;;;;;;1.80;0.60;;;;;;;;;;4995063;28;20026;-86
2021/05/19 07:18:30;;;;;;;1.95;0.70;;;;;;;;;;4995345;28;20042;-86
2021/05/19 07:20:56;;;;;;;2.53;0.70;;;;;;;;;;4995923;28;20035;-86
2021/05/19 07:23:22;;;;;;;1.90;0.40;;;;;;;;;;4994410;28;20513;-83
2021/05/19 07:25:49;;;;;;;2.78;0.50;;;;;;;;;;4994596;28;20055;-87
2021/05/19 07:28:15;;;;;;;2.78;0.50;;;;;;;;;;4993712;28;20034;-88
2021/05/19 07:30:43;;;;;;;1.30;0.40;;;;;;;;;;4993790;28;20125;-86
2021/05/19 07:33:10;;;;;;;1.00;0.40;;;;;;;;;;4993711;28;20170;-81
2021/05/19 07:35:36;;;;;;;2.42;0.68;;;;;;;;;;4994150;28;20026;-80
2021/05/19 07:38:03;;;;;;;2.83;0.52;;;;;;;;;;4995266;28;20391;-80
2021/05/19 07:40:29;;;;;;;1.27;0.60;;;;;;;;;;4996286;28;20026;-80
2021/05/19 07:42:55;;;;;;;1.20;0.52;;;;;;;;;;4997846;28;20026;-80
2021/05/19 07:45:21;;;;;;;1.52;0.50;;;;;;;;;;4998095;28;20029;-80
2021/05/19 07:47:47;;;;;;;0.90;0.40;;;;;;;;;;4998345;28;20031;-80
2021/05/19 07:50:14;;;;;;;1.95;0.40;;;;;;;;;;4997890;28;20073;-80
2021/05/19 07:52:40;;;;;;;0.88;0.50;;;;;;;;;;4997833;28;20490;-81
2021/05/19 07:55:09;;;;;;;3.60;0.63;;;;;;;;;;4998449;28;20032;-82
2021/05/19 07:58:12;;;;;;;1.27;0.40;;;;;;;;;;4997660;28;20038;-81
2021/05/19 08:00:46;;;;;;;1.67;0.40;;;;;;;;;;4995764;28;20058;-81
2021/05/19 08:03:12;;;;;;;2.70;0.60;;;;;;;;;;4990582;28;20034;-81
2021/05/19 08:05:38;;;;;;;1.48;0.47;;;;;;;;;;4994366;28;20030;-81
2021/05/19 08:08:04;;;;;;;1.33;0.40;;;;;;;;;;4997937;28;20030;-83
2021/05/19 08:10:30;;;;;;;2.15;0.50;;;;;;;;;;4998085;28;20380;-83
2021/05/19 08:12:56;;;;;;;1.27;0.52;;;;;;;;;;4997459;28;20490;-83
2021/05/19 08:15:22;;;;;;;1.88;0.60;;;;;;;;;;4998892;28;20475;-83
2021/05/19 08:17:49;;;;;;;2.47;0.50;;;;;;;;;;4998558;28;20053;-80
2021/05/19 08:20:19;;;;;;;1.25;0.47;;;;;;;;;;4997097;28;20023;-80
2021/05/19 08:22:46;;;;;;;0.95;0.40;;;;;;;;;;4997173;28;20034;-81
2021/05/19 08:25:12;;;;;;;1.88;0.57;;;;;;;;;;4996897;28;20423;-81
2021/05/19 08:27:38;;;;;;;1.08;0.43;;;;;;;;;;4996390;28;20022;-82
2021/05/19 08:30:05;;;;;;;1.25;0.40;;;;;;;;;;4997027;28;20038;-81
2021/05/19 08:32:31;;;;;;;5.45;0.60;;;;;;;;;;4998183;28;20022;-80
2021/05/19 08:34:57;;;;;;;4.82;0.52;;;;;;;;;;4996928;28;20026;-82
2021/05/19 08:37:23;;;;;;;0.85;0.40;;;;;;;;;;4996999;28;20030;-80
2021/05/19 08:39:49;;;;;;;2.42;0.55;;;;;;;;;;4996691;28;20038;-83
2021/05/19 08:42:15;;;;;;;2.78;0.60;;;;;;;;;;4996233;28;20383;-83
2021/05/19 08:44:42;;;;;;;1.02;0.43;;;;;;;;;;4997836;28;20030;-81
2021/05/19 08:47:11;;;;;;;1.80;0.47;;;;;;;;;;4998066;28;20030;-78
2021/05/19 08:49:39;;;;;;;4.22;0.60;;;;;;;;;;4997765;28;20022;-81
2021/05/19 08:52:06;;;;;;;2.50;0.70;;;;;;;;;;4995709;28;20026;-81
2021/05/19 08:54:32;;;;;;;1.35;0.52;;;;;;;;;;4996400;28;20034;-79
2021/05/19 08:56:58;;;;;;;2.92;0.70;;;;;;;;;;4995828;28;20037;-79
2021/05/19 08:59:24;;;;;;;1.83;0.75;;;;;;;;;;4996511;28;20494;-84
2021/05/19 09:01:52;;;;;;;2.10;0.80;;;;;;;;;;4996826;28;20027;-80
2021/05/19 09:04:24;;;;;;;1.98;0.70;;;;;;;;;;4996101;28;20054;-80
2021/05/19 09:06:55;;;;;;;4.33;0.80;;;;;;;;;;4996331;28;20034;-83
2021/05/19 09:09:21;;;;;;;8.80;1.08;;;;;;;;;;4996853;28;20274;-80
2021/05/19 09:11:57;;;;;;;2.15;0.80;;;;;;;;;;4996569;28;20067;-79
2021/05/19 09:14:24;;;;;;;2.03;0.60;;;;;;;;;;4997732;28;20214;-83
2021/05/19 09:16:50;;;;;;;4.13;1.05;;;;;;;;;;4997006;28;20096;-81
2021/05/19 09:19:31;;;;;;;2.17;0.70;;;;;;;;;;4997703;28;20045;-81
2021/05/19 09:21:57;;;;;;;1.50;0.60;;;;;;;;;;4996255;28;20088;-81
2021/05/19 09:24:41;;;;;;;5.18;0.82;;;;;;;;;;4996135;28;20471;-85
2021/05/19 09:27:07;;;;;;;1.73;0.70;;;;;;;;;;4997658;28;20050;-81
2021/05/19 09:29:40;;;;;;;1.98;0.73;;;;;;;;;;4995865;28;20395;-80
2021/05/19 09:32:06;;;;;;;1.90;0.65;;;;;;;;;;4995725;28;20072;-79
2021/05/19 09:34:36;;;;;;;1.35;0.63;;;;;;;;;;4995590;28;20034;-78
2021/05/19 09:37:11;;;;;;;1.60;0.68;;;;;;;;;;4995722;28;20038;-78
2021/05/19 09:39:51;;;;;;;3.50;0.60;;;;;;;;;;4995835;28;20025;-79
2021/05/19 09:42:18;;;;;;;1.10;0.60;;;;;;;;;;4995631;28;20479;-81
2021/05/19 09:44:46;;;;;;;1.88;0.73;;;;;;;;;;4996408;28;20061;-81
2021/05/19 09:47:13;;;;;;;1.75;0.70;;;;;;;;;;4997563;28;20026;-83
2021/05/19 09:49:39;;;;;;;2.47;0.77;;;;;;;;;;4996684;28;20602;-80
2021/05/19 09:52:12;;;;;;;1.50;0.80;;;;;;;;;;4995191;28;20056;-83
2021/05/19 09:54:42;;;;;;;1.50;0.73;;;;;;;;;;4995489;28;20072;-80
2021/05/19 09:57:10;;;;;;;6.10;0.52;;;;;;;;;;4995249;28;20033;-82
2021/05/19 09:59:37;;;;;;;3.08;0.70;;;;;;;;;;4989411;28;20031;-80
2021/05/19 10:02:03;;;;;;;1.17;0.47;;;;;;;;;;4976595;28;20033;-82
2021/05/19 10:04:35;;;;;;;1.30;0.52;;;;;;;;;;4975667;28;20468;-84
2021/05/19 10:07:02;;;;;;;1.55;0.60;;;;;;;;;;4975947;28;20031;-82
2021/05/19 10:09:28;;;;;;;2.85;0.77;;;;;;;;;;4975941;28;20035;-81
2021/05/19 10:11:59;;;;;;;1.48;0.50;;;;;;;;;;4977081;28;20022;-81
2021/05/19 10:14:25;;;;;;;1.77;0.57;;;;;;;;;;4976588;28;20071;-80
2021/05/19 10:16:53;;;;;;;1.67;0.65;;;;;;;;;;4976775;28;20077;-82
2021/05/19 10:19:25;;;;;;;2.35;0.60;;;;;;;;;;4976147;28;20034;-82
2021/05/19 10:21:52;;;;;;;1.95;0.60;;;;;;;;;;4977464;28;20031;-83
2021/05/19 10:24:21;;;;;;;1.33;0.50;;;;;;;;;;4975305;28;20510;-81
2021/05/19 10:27:07;;;;;;;1.52;0.60;;;;;;;;;;4975646;28;20023;-81
2021/05/19 10:29:59;;;;;;;1.25;0.70;;;;;;;;;;4975697;28;20118;-80
2021/05/19 10:32:32;;;;;;;2.53;0.60;;;;;;;;;;4973075;28;20047;-81
2021/05/19 10:35:00;;;;;;;1.70;0.70;;;;;;;;;;4976983;28;20443;-79
2021/05/19 10:37:29;;;;;;;1.20;0.60;;;;;;;;;;4976266;28;20126;-80
2021/05/19 10:40:08;;;;;;;2.50;0.82;;;;;;;;;;4977296;28;20023;-80
2021/05/19 10:42:44;;;;;;;2.05;0.90;;;;;;;;;;4975773;28;20055;-79
2021/05/19 10:45:15;;;;;;;4.72;0.88;;;;;;;;;;4974418;28;20022;-79
2021/05/19 10:47:48;;;;;;;2.05;0.47;;;;;;;;;;4974673;28;20030;-80
2021/05/19 10:50:26;;;;;;;1.88;0.85;;;;;;;;;;4976077;28;20027;-80
2021/05/19 10:58:29;;;;;;;2.35;1.00;;;;;;;;;;4975737;28;20102;-81
2021/05/19 11:00:55;;;;;;;1.67;0.60;;;;;;;;;;4991012;28;20439;-79
2021/05/19 11:03:22;;;;;;;2.25;0.80;;;;;;;;;;4993957;28;20590;-81
2021/05/19 11:05:55;;;;;;;1.58;0.77;;;;;;;;;;4994751;28;20360;-78
2021/05/19 11:08:27;;;;;;;2.25;0.80;;;;;;;;;;4993039;28;20499;-79
2021/05/19 11:11:00;;;;;;;2.70;0.60;;;;;;;;;;4994122;28;20030;-83
2021/05/19 11:13:26;;;;;;;;;;;;;;;;;;4994346;28;20053;-82
2021/05/19 11:21:03;;;;;;;2.05;0.80;;;;;;;;;;4996061;28;20029;-82
2021/05/19 11:23:32;;;;;;;1.88;0.88;;;;;;;;;;4994054;28;20117;-84
2021/05/19 11:26:10;;;;;;;1.77;0.65;;;;;;;;;;4995568;28;20391;-84
2021/05/19 11:28:37;;;;;;;2.05;0.95;;;;;;;;;;4997686;28;20499;-83
2021/05/19 11:31:11;;;;;;;1.75;0.60;;;;;;;;;;4993683;28;20033;-84
2021/05/19 11:33:57;;;;;;;1.17;0.50;;;;;;;;;;4993720;28;20109;-81
2021/05/19 11:36:39;;;;;;;2.75;1.00;;;;;;;;;;4993516;28;20113;-80
2021/05/19 11:39:23;;;;;;;2.10;0.90;;;;;;;;;;4994051;28;20057;-79
2021/05/19 11:41:50;;;;;;;2.72;1.00;;;;;;;;;;4994814;28;20026;-80
2021/05/19 11:44:29;;;;;;;2.90;0.70;;;;;;;;;;4993100;28;20034;-84
2021/05/19 11:46:55;;;;;;;3.45;0.80;;;;;;;;;;4993657;28;20403;-80
2021/05/19 11:49:21;;;;;;;1.52;0.55;;;;;;;;;;4993822;28;20476;-83
2021/05/19 11:51:47;;;;;;;3.67;0.70;;;;;;;;;;4995044;28;20081;-82
2021/05/19 11:54:13;;;;;;;2.20;0.70;;;;;;;;;;4993610;28;20080;-82
2021/05/19 11:56:44;;;;;;;1.42;0.70;;;;;;;;;;4993550;28;20034;-80
2021/05/19 11:59:22;;;;;;;1.35;0.70;;;;;;;;;;4993540;28;20100;-80
2021/05/19 12:02:10;;;;;;;4.25;0.75;;;;;;;;;;4994887;28;20500;-82
2021/05/19 12:04:39;;;;;;;1.70;0.60;;;;;;;;;;4993396;28;20114;-81
2021/05/19 12:07:07;;;;;;;3.28;0.73;;;;;;;;;;4993983;28;20034;-81
2021/05/19 12:09:40;;;;;;;1.75;0.90;;;;;;;;;;4993182;28;20094;-81
2021/05/19 12:12:14;;;;;;;2.28;0.80;;;;;;;;;;4994372;28;20480;-82
2021/05/19 12:15:00;;;;;;;2.33;0.70;;;;;;;;;;4993334;28;20031;-83
2021/05/19 12:17:27;;;;;;;2.83;0.70;;;;;;;;;;4994040;28;20470;-84
2021/05/19 12:19:53;;;;;;;1.98;0.90;;;;;;;;;;4993809;28;20038;-84
2021/05/19 12:22:22;;;;;;;1.98;0.75;;;;;;;;;;4993233;28;20468;-81
2021/05/19 12:24:48;;;;;;;1.27;0.55;;;;;;;;;;4994677;28;20086;-82
2021/05/19 12:27:21;;;;;;;1.83;0.95;;;;;;;;;;4995771;28;20030;-83
2021/05/19 12:29:52;;;;;;;3.15;0.73;;;;;;;;;;4996961;28;20032;-81
2021/05/19 12:32:21;;;;;;;2.25;0.90;;;;;;;;;;4997104;28;20092;-82
2021/05/19 12:34:58;;;;;;;2.35;0.95;;;;;;;;;;4996614;28;20023;-83
2021/05/19 12:37:39;;;;;;;5.50;1.10;;;;;;;;;;4996425;28;20423;-83
2021/05/19 12:40:06;;;;;;;3.65;1.20;;;;;;;;;;4996553;28;20117;-81
2021/05/19 12:42:39;;;;;;;2.72;1.27;;;;;;;;;;4997690;28;20394;-82
2021/05/19 12:45:06;;;;;;;2.80;1.30;;;;;;;;;;4996573;28;20057;-81
2021/05/19 12:47:32;;;;;;;2.10;1.05;;;;;;;;;;4998326;28;20027;-82
2021/05/19 12:50:02;;;;;;;2.35;1.45;;;;;;;;;;4996808;28;20030;-80
2021/05/19 12:52:32;;;;;;;2.67;1.10;;;;;;;;;;4996024;28;20026;-79
2021/05/19 12:54:59;;;;;;;1.77;0.70;;;;;;;;;;4996721;28;20022;-81
2021/05/19 12:57:26;;;;;;;7.00;1.00;;;;;;;;;;4999759;28;20049;-81
2021/05/19 13:00:14;;;;;;;1.55;0.80;;;;;;;;;;4996797;28;20026;-81
2021/05/19 13:02:50;;;;;;;1.58;0.50;;;;;;;;;;4999809;28;20042;-83
2021/05/19 13:05:20;;;;;;;1.70;0.55;;;;;;;;;;5152770;23;20078;-81
2021/05/19 13:07:50;;;;;;;4.70;0.85;;;;;;;;;;4992576;28;20496;-82
2021/05/19 13:10:20;;;;;;;2.30;0.65;;;;;;;;;;4979872;28;20029;-81
2021/05/19 13:13:04;;;;;;;1.45;0.68;;;;;;;;;;4980711;28;20264;-80
2021/05/19 13:15:32;;;;;;;1.48;0.65;;;;;;;;;;4992019;28;20035;-81
2021/05/19 13:18:20;;;;;;;;;;;;;;;;;;;;;
2021/05/19 13:20:58;;;;;;;3.08;0.60;;;;;;;;;;4977944;28;20029;-81
2021/05/19 13:23:24;;;;;;;1.67;0.60;;;;;;;;;;4977099;28;20038;-81
2021/05/19 13:25:50;;;;;;;1.50;0.50;;;;;;;;;;4992206;28;20110;-83
2021/05/19 13:28:23;;;;;;;4.43;0.52;;;;;;;;;;4977504;28;20106;-81
2021/05/19 13:30:52;;;;;;;1.40;0.70;;;;;;;;;;4996692;28;20113;-81
2021/05/19 13:38:30;;;;;;;0.95;0.50;;;;;;;;;;4978255;28;20098;-81
2021/05/19 13:43:45;;;;;;;1.33;0.50;;;;;;;;;;4976644;28;20053;-80
2021/05/19 13:46:12;;;;;;;2.25;1.02;;;;;;;;;;4991876;28;20457;-82
2021/05/19 13:48:38;;;;;;;2.40;1.02;;;;;;;;;;4977746;28;20384;-81
2021/05/19 13:51:05;;;;;;;1.75;0.80;;;;;;;;;;4992208;28;20065;-81
2021/05/19 13:53:31;;;;;;;1.50;0.80;;;;;;;;;;4977690;28;20030;-81
2021/05/19 13:56:05;;;;;;;1.83;1.00;;;;;;;;;;4977460;28;20026;-81
2021/05/19 13:58:32;;;;;;;7.63;0.85;;;;;;;;;;4977577;28;20084;-82
2021/05/19 14:01:00;;;;;;;3.55;1.15;;;;;;;;;;4960818;28;20026;-81
2021/05/19 14:03:27;;;;;;;2.10;1.10;;;;;;;;;;4957852;28;20027;-83
2021/05/19 14:05:56;;;;;;;2.13;1.05;;;;;;;;;;4957531;28;20051;-83
2021/05/19 14:08:23;;;;;;;2.67;1.17;;;;;;;;;;4973037;28;20035;-84
2021/05/19 14:13:49;;;;;;;2.55;1.08;;;;;;;;;;4957384;28;20031;-84
2021/05/19 14:29:30;;;;;;;2.10;0.88;;;;;;;;;;4957773;29;20043;-84
2021/05/19 14:31:56;;;;;;;2.38;1.17;;;;;;;;;;4957402;29;20098;-84
2021/05/19 14:34:24;;;;;;;3.15;1.23;;;;;;;;;;4972537;28;20035;-83
2021/05/19 14:37:10;;;;;;;2.58;1.20;;;;;;;;;;4957383;28;20038;-82
2021/05/19 15:01:19;;;;;;;6.65;2.65;;;;;;;;;;4956872;29;20082;-82
2021/05/19 15:03:47;;;;;;;5.57;2.65;;;;;;;;;;4972050;28;20031;-81
2021/05/19 15:06:13;;;;;;;4.97;1.98;;;;;;;;;;4956673;28;20098;-81
2021/05/19 15:08:40;;;;;;;3.08;1.75;;;;;;;;;;4956789;29;20033;-80
2021/05/19 15:11:06;;;;;;;3.35;1.67;;;;;;;;;;4971332;28;20035;-81
2021/05/19 15:13:32;;;;;;;4.35;1.88;;;;;;;;;;4971192;28;20027;-81
2021/05/19 15:15:58;;;;;;;7.88;3.92;;;;;;;;;;4971971;28;20027;-81
2021/05/19 15:18:24;;;;;;;3.00;1.80;;;;;;;;;;4971716;28;20429;-81
2021/05/19 15:20:50;;;;;;;4.22;2.00;;;;;;;;;;4971188;28;20023;-81
2021/05/19 15:23:17;;;;;;;5.70;2.80;;;;;;;;;;4971554;28;20428;-81
2021/05/19 15:25:43;;;;;;;3.97;1.70;;;;;;;;;;4971564;28;20075;-79
2021/05/19 15:28:11;;;;;;;4.03;1.70;;;;;;;;;;4955900;29;20469;-81
2021/05/19 15:30:37;;;;;;;3.28;1.50;;;;;;;;;;4971705;28;20031;-81
2021/05/19 15:33:03;;;;;;;4.28;1.80;;;;;;;;;;4971428;28;20118;-81
2021/05/19 15:35:29;;;;;;;2.15;1.25;;;;;;;;;;4971664;28;20031;-81
2021/05/19 15:37:57;;;;;;;2.55;1.40;;;;;;;;;;4971137;28;20035;-81
2021/05/19 15:40:24;;;;;;;6.00;1.10;;;;;;;;;;4971402;28;20366;-81
2021/05/19 15:42:51;;;;;;;2.75;1.50;;;;;;;;;;4955907;28;20418;-82
2021/05/19 15:45:17;;;;;;;2.05;1.10;;;;;;;;;;4971550;28;20389;-82
2021/05/19 15:47:43;;;;;;;2.53;1.20;;;;;;;;;;4971668;28;20034;-82
2021/05/19 15:50:10;;;;;;;3.03;1.27;;;;;;;;;;4971275;28;20050;-84